Latest Weather Observations for Mount Gellibrand

IDV60801

Issued at 10:35 pm EST Wednesday 23 April 2014 (issued every 30 minutes, with the page automatically refreshed every 10 minutes)

About weather observations | Map of weather stations | Latest weather observations for VIC | Other Formats
Station Details ID: 090035 Name: MOUNT GELLIBRAND Lat: -38.23 Lon: 143.79 Height: 261.0 m
Data from the previous 72 hours. | See also: Recent months at Mount Gellibrand
Date/Time
EST
Temp
°C
App
Temp
°C
Dew
Point
Rel
Hum
%
Delta-T
°C
Wind Press
QNH
hPa
Press
MSL
hPa
Rain
since 9 am
mm
Dir
 
Spd
km/h
Gust
km/h
Spd
kts
Gust
kts
23/10:30pm 11.2 5.3 10.4 95 0.4 NW 32 37 17 20 1011.9 - 0.0
23/10:00pm 11.4 6.4 10.9 97 0.3 NW 28 32 15 17 1012.1 1011.8 0.0
23/09:30pm 12.1 8.3 11.0 93 0.6 NW 22 26 12 14 1012.5 - 0.0
23/09:00pm 12.0 8.7 11.5 97 0.3 NNW 20 26 11 14 1012.8 1012.5 0.0
23/08:30pm 11.3 8.8 11.1 99 0.1 NNW 15 15 8 8 1012.9 - 0.0
23/08:00pm 12.2 9.5 11.6 96 0.3 NW 17 17 9 9 1013.0 1012.7 0.0
23/07:30pm 12.4 9.6 11.3 93 0.6 WNW 17 19 9 10 1013.0 - 0.0
23/07:00pm 12.9 10.6 11.6 92 0.7 WNW 15 17 8 9 1013.0 1012.7 0.0
23/06:30pm 12.7 10.5 12.1 96 0.3 WNW 15 17 8 9 1012.9 - 0.0
23/06:00pm 13.0 10.5 11.2 89 1.0 WNW 15 19 8 10 1012.9 1012.6 0.0
23/05:30pm 13.4 10.9 11.1 86 1.2 WNW 15 17 8 9 1013.0 - 0.0
23/05:00pm 14.0 10.9 10.4 79 1.9 NW 17 20 9 11 1012.9 1012.6 0.0
23/04:30pm 14.3 9.8 9.9 75 2.3 NW 24 28 13 15 1013.0 - 0.0
23/04:00pm 15.1 10.1 9.7 70 2.8 NW 26 35 14 19 1013.1 1012.8 0.0
23/03:30pm 15.8 11.0 10.3 70 2.9 WNW 26 37 14 20 1013.5 - 0.0
23/03:00pm 15.3 10.4 10.1 71 2.8 WNW 26 35 14 19 1013.6 1013.3 0.0
23/02:30pm 15.1 10.7 10.5 74 2.5 W 24 32 13 17 1013.9 - 0.0
23/02:00pm 14.8 11.5 11.6 81 1.7 WNW 20 30 11 16 1013.9 1013.6 0.0
23/01:30pm 14.6 10.9 11.4 81 1.7 NW 22 30 12 16 1014.1 - 0.0
23/01:00pm 13.9 10.9 12.5 91 0.8 NW 20 26 11 14 1014.6 1014.3 0.0
23/12:30pm 14.4 11.3 11.7 84 1.5 NW 19 28 10 15 1015.2 - 0.0
23/12:00pm 14.7 11.7 12.7 88 1.1 NW 20 30 11 16 1016.2 1015.9 0.0
23/11:30am 14.0 11.7 14.0 100 0.0 WNW 19 24 10 13 1016.6 - 0.0
23/11:00am 12.7 10.7 12.7 100 0.0 WNW 15 20 8 11 1016.8 1016.5 0.0
23/10:30am 11.3 10.0 11.3 100 0.0 WNW 9 13 5 7 1016.8 - 0.0
23/10:00am 10.1 8.5 10.1 100 0.0 W 9 13 5 7 1016.9 1016.6 0.0
23/09:30am 9.4 7.2 9.4 100 0.0 W 11 15 6 8 1017.1 - 0.0
23/09:00am 8.9 6.6 8.9 100 0.0 W 11 15 6 8 1017.2 1016.9 0.0
23/08:30am 8.2 5.3 8.2 100 0.0 WSW 13 15 7 8 1017.3 - 0.0
23/08:00am 8.1 5.6 8.1 100 0.0 W 11 15 6 8 1017.1 1016.8 0.0
23/07:30am 7.7 5.1 7.7 100 0.0 W 11 13 6 7 1016.8 - 0.0
23/07:00am 7.2 4.5 7.2 100 0.0 W 11 11 6 6 1016.6 1016.3 0.0
23/06:30am 8.0 5.8 8.0 100 0.0 W 9 11 5 6 1016.5 - 0.0
23/06:00am 7.9 5.7 7.9 100 0.0 W 9 9 5 5 1016.5 1016.2 0.0
23/05:30am 8.0 5.5 8.0 100 0.0 W 11 11 6 6 1016.5 - 0.0
23/05:00am 7.8 4.8 7.8 100 0.0 W 13 15 7 8 1016.5 1016.2 0.0
23/04:30am 8.3 6.2 8.3 100 0.0 W 9 9 5 5 1016.2 - 0.0
23/04:00am 8.2 6.1 8.2 100 0.0 W 9 11 5 6 1016.2 1015.9 0.0
23/03:30am 9.0 7.6 9.0 100 0.0 W 6 7 3 4 1016.2 - 0.0
23/03:00am 8.9 7.5 8.9 100 0.0 W 6 6 3 3 1016.4 1016.1 0.0
23/02:30am 9.1 7.8 9.1 100 0.0 W 6 7 3 4 1016.7 - 0.0
23/02:00am 9.0 7.5 9.0 100 0.0 W 7 7 4 4 1017.1 1016.8 0.0
23/01:30am 9.3 7.8 9.3 100 0.0 W 7 9 4 5 1017.1 - 0.0
23/01:00am 9.7 8.5 9.7 100 0.0 W 6 7 3 4 1017.3 1017.0 0.0
23/12:30am 8.9 7.0 8.9 100 0.0 W 9 11 5 6 1017.5 - 0.0
23/12:00am 9.4 8.2 9.4 100 0.0 WSW 6 7 3 4 1017.6 1017.3 0.0
 
Date/Time
EST
Temp
°C
App
Temp
°C
Dew
Point
Rel
Hum
%
Delta-T
°C
Wind Press
QNH
hPa
Press
MSL
hPa
Rain
since 9 am
mm
Dir
 
Spd
km/h
Gust
km/h
Spd
kts
Gust
kts
22/11:30pm 10.1 9.8 10.1 100 0.0 WSW 2 4 1 2 1017.9 - 0.0
22/11:00pm 10.5 10.3 10.5 100 0.0 WSW 2 4 1 2 1017.9 1017.6 0.0
22/10:30pm 11.1 10.7 11.1 100 0.0 WSW 4 6 2 3 1018.2 - 0.0
22/10:00pm 11.0 10.2 11.0 100 0.0 WSW 6 6 3 3 1018.2 1017.9 0.0
22/09:30pm 10.8 9.7 10.8 100 0.0 WSW 7 9 4 5 1018.2 - 0.0
22/09:00pm 10.7 9.6 10.7 100 0.0 WSW 7 9 4 5 1017.9 1017.6 0.0
22/08:30pm 11.2 9.9 11.2 100 0.0 SW 9 11 5 6 1017.6 - 0.0
22/08:00pm 11.1 8.6 11.1 100 0.0 SW 15 15 8 8 1017.5 1017.2 0.0
22/07:30pm 11.2 8.4 11.2 100 0.0 SW 17 20 9 11 1017.3 - 0.0
22/07:00pm 11.1 8.2 11.1 100 0.0 SW 17 19 9 10 1017.0 1016.7 0.0
22/06:30pm 11.3 7.5 11.3 100 0.0 SW 22 26 12 14 1016.6 - 0.0
22/06:00pm 12.1 9.5 12.1 100 0.0 SW 17 22 9 12 1016.3 1016.0 0.0
22/05:30pm 12.9 10.2 12.9 100 0.0 SW 19 22 10 12 1016.1 - 0.0
22/05:00pm 13.4 9.7 12.8 96 0.3 SW 24 28 13 15 1015.6 1015.4 0.0
22/04:30pm 13.9 10.9 13.6 98 0.2 SW 22 32 12 17 1015.2 - 0.0
22/04:00pm 14.6 11.5 14.6 100 0.0 SW 24 30 13 16 1015.0 1014.7 0.0
22/03:30pm 15.3 12.9 15.3 100 0.0 SW 22 30 12 16 1014.8 - 0.0
22/03:00pm 15.9 13.3 15.9 100 0.0 SSW 24 30 13 16 1014.5 1014.2 0.0
22/02:30pm 16.6 14.6 16.4 99 0.1 WSW 22 32 12 17 1014.2 - 0.0
22/02:00pm 16.5 14.5 16.5 100 0.0 WSW 22 32 12 17 1014.1 1013.8 0.0
22/01:30pm 15.9 14.3 15.9 100 0.0 WSW 19 28 10 15 1014.2 - 0.0
22/01:00pm 15.5 13.7 15.5 100 0.0 SW 19 26 10 14 1014.5 1014.2 0.0
22/12:30pm 16.2 14.1 16.2 100 0.0 SW 22 28 12 15 1014.6 - 0.0
22/12:00pm 14.1 10.5 14.1 100 0.0 WSW 26 35 14 19 1015.0 1014.7 0.0
22/11:30am 16.1 14.3 16.1 100 0.0 W 20 28 11 15 1014.9 - 0.0
22/11:00am 15.3 13.4 15.3 100 0.0 W 19 24 10 13 1014.8 1014.5 0.0
22/10:30am 13.9 11.5 13.9 100 0.0 WNW 19 26 10 14 1014.8 - 0.0
22/10:00am 13.4 9.9 13.4 100 0.0 WNW 24 28 13 15 1014.7 1014.4 0.0
22/09:30am 12.7 9.4 12.7 100 0.0 NW 22 26 12 14 1014.5 - 0.0
22/09:00am 12.4 7.8 12.4 100 0.0 NW 28 32 15 17 1013.9 1013.6 18.4
22/08:30am 12.1 7.8 12.1 100 0.0 NNW 26 30 14 16 1013.7 - 18.4
22/08:00am 11.5 6.7 11.5 100 0.0 NNW 28 33 15 18 1013.5 1013.2 18.4
22/07:30am 11.5 6.3 11.5 100 0.0 N 30 37 16 20 1013.1 - 18.4
22/07:00am 11.7 6.0 11.7 100 0.0 N 33 39 18 21 1012.6 1012.3 18.4
22/06:30am 11.5 4.9 11.5 100 0.0 NNW 37 44 20 24 1013.1 - 16.8
22/06:00am 11.2 5.5 11.2 100 0.0 NNW 32 41 17 22 1013.3 1013.0 15.0
22/05:30am 11.1 5.4 11.1 100 0.0 NNW 32 43 17 23 1013.7 - 13.8
22/05:00am 11.0 6.0 11.0 100 0.0 NW 28 32 15 17 1013.4 1013.1 11.0
22/04:30am 10.7 4.7 10.7 100 0.0 N 33 39 18 21 1012.1 - 9.6
22/04:00am 10.8 2.7 10.8 100 0.0 NNW 44 56 24 30 1012.4 1012.1 7.8
22/03:30am 11.2 5.3 11.2 100 0.0 N 33 41 18 22 1012.1 - 5.0
22/03:00am 12.2 7.6 12.2 100 0.0 N 28 33 15 18 1012.1 1011.8 4.2
22/02:30am 12.4 6.5 12.4 100 0.0 N 35 41 19 22 1012.2 - 3.4
22/02:00am 12.8 8.4 12.8 100 0.0 NNW 28 35 15 19 1012.8 1012.5 3.2
22/01:30am 12.4 6.9 12.4 100 0.0 WNW 33 39 18 21 1013.6 - 2.6
22/01:00am 13.0 7.6 12.8 99 0.1 NW 33 41 18 22 1012.9 1012.6 1.8
22/12:30am 12.0 7.7 12.0 100 0.0 WNW 26 35 14 19 1013.1 - 1.8
22/12:00am 14.2 5.8 9.0 71 2.7 NW 43 54 23 29 1013.7 1013.4 0.0
 
Date/Time
EST
Temp
°C
App
Temp
°C
Dew
Point
Rel
Hum
%
Delta-T
°C
Wind Press
QNH
hPa
Press
MSL
hPa
Rain
since 9 am
mm
Dir
 
Spd
km/h
Gust
km/h
Spd
kts
Gust
kts
21/11:30pm 16.0 9.0 6.2 52 4.8 NW 32 39 17 21 1013.4 - 0.0
21/11:04pm 15.8 8.7 6.3 53 4.7 WSW 33 52 18 28 1013.9 - 0.0
21/11:00pm 16.0 9.0 6.2 52 4.8 WSW 32 43 17 23 1013.8 1013.5 0.0
21/10:56pm 16.7 10.4 5.9 49 5.3 WNW 28 32 15 17 1013.7 - 0.0
21/10:30pm 16.3 5.9 5.9 50 5.1 N 50 67 27 36 1011.7 - 0.0
21/10:00pm 16.3 5.1 5.9 50 5.1 N 54 63 29 34 1011.3 1011.0 0.0
21/09:30pm 16.0 4.9 6.2 52 4.8 N 54 67 29 36 1011.4 - 0.0
21/09:00pm 16.2 4.5 6.3 52 4.9 N 57 70 31 38 1011.2 1010.9 0.0
21/08:30pm 16.2 4.5 6.3 52 4.9 N 57 69 31 37 1011.0 - 0.0
21/08:00pm 16.4 5.0 6.5 52 4.9 N 56 63 30 34 1011.1 1010.8 0.0
21/07:30pm 16.4 6.2 6.8 53 4.8 N 50 59 27 32 1011.4 - 0.0
21/07:00pm 16.7 6.8 6.8 52 5.0 N 48 59 26 32 1011.9 1011.5 0.0
21/06:30pm 17.1 6.9 6.9 51 5.1 N 50 59 27 32 1011.4 - 0.0
21/06:00pm 17.3 8.2 6.8 50 5.3 N 44 54 24 29 1011.3 1011.0 0.0
21/05:30pm 18.2 9.6 6.7 47 5.8 N 41 52 22 28 1011.3 - 0.0
21/05:00pm 18.7 8.9 6.9 46 6.0 N 48 59 26 32 1011.1 1010.8 0.0
21/04:30pm 19.3 9.4 6.8 44 6.4 N 48 59 26 32 1010.9 - 0.0
21/04:16pm 19.8 11.0 7.2 44 6.5 NNW 43 63 23 34 1011.0 - 0.0
21/04:00pm 19.2 10.2 7.3 46 6.1 N 44 56 24 30 1011.5 1011.2 0.0
21/03:30pm 20.2 10.8 7.2 43 6.7 NNW 46 59 25 32 1011.7 - 0.0
21/03:00pm 20.3 10.2 7.3 43 6.7 N 50 61 27 33 1012.2 1011.9 0.0
21/02:30pm 19.6 8.3 7.0 44 6.5 N 56 65 30 35 1012.3 - 0.0
21/02:00pm 18.4 7.8 6.9 47 5.8 N 52 59 28 32 1012.8 1012.5 0.0
21/01:30pm 17.8 8.3 6.7 48 5.6 N 46 54 25 29 1013.8 - 0.0
21/01:00pm 17.4 7.5 6.6 49 5.4 NNW 48 59 26 32 1014.6 1014.3 0.0
21/12:30pm 17.3 6.2 6.2 48 5.5 NNW 54 65 29 35 1014.4 - 0.0
21/12:13pm 18.2 7.4 6.1 45 6.0 N 52 70 28 38 1014.2 - 0.0
21/12:00pm 19.1 7.4 6.2 43 6.5 N 57 67 31 36 1014.3 1014.0 0.0
21/11:30am 17.2 7.6 6.4 49 5.4 N 46 59 25 32 1014.9 - 0.0
21/11:00am 17.6 8.6 6.5 48 5.6 N 43 59 23 32 1015.5 1015.3 0.0
21/10:30am 16.7 8.9 6.8 52 5.0 NNW 37 46 20 25 1016.3 - 0.0
21/10:00am 16.1 9.0 8.1 59 4.1 NNW 35 46 19 25 1016.6 1016.3 0.0
21/09:30am 14.7 7.7 8.4 66 3.2 NNW 35 43 19 23 1016.9 - 0.0
21/09:00am 13.5 8.0 9.2 75 2.2 NNW 28 33 15 18 1017.4 1017.1 0.0
21/08:30am 12.0 6.7 9.7 86 1.2 NNW 28 35 15 19 1017.5 - 0.0
21/08:00am 11.3 5.9 9.6 89 0.9 NNW 28 33 15 18 1017.2 1016.9 0.0
21/07:30am 11.0 6.0 9.4 90 0.8 NNW 26 32 14 17 1017.1 - 0.0
21/07:00am 10.9 6.3 9.5 91 0.7 NNW 24 28 13 15 1017.0 1016.7 0.0
21/06:30am 10.7 6.0 9.3 91 0.7 NNW 24 28 13 15 1017.0 - 0.0
21/06:00am 10.2 5.0 8.8 91 0.7 NNW 26 28 14 15 1016.8 1016.5 0.0
21/05:30am 10.1 5.2 8.5 90 0.8 NNW 24 28 13 15 1016.8 - 0.0
21/05:00am 10.4 4.7 8.3 87 1.0 NNW 28 33 15 18 1016.4 1016.1 0.0
21/04:30am 10.5 5.2 8.4 87 1.0 NNW 26 30 14 16 1016.4 - 0.0
21/04:00am 10.2 5.0 8.8 91 0.7 NNW 26 30 14 16 1016.5 1016.2 0.0
21/03:30am 10.4 5.2 8.7 89 0.8 NNW 26 30 14 16 1016.4 - 0.0
21/03:00am 10.5 5.4 9.1 91 0.7 NNW 26 32 14 17 1016.7 1016.4 0.0
21/02:30am 10.2 4.8 9.4 95 0.4 NNW 28 32 15 17 1016.8 - 0.0
21/02:00am 10.9 6.3 9.7 92 0.6 NNW 24 28 13 15 1017.0 1016.7 0.0
21/01:30am 11.1 6.2 9.9 92 0.6 NW 26 30 14 16 1016.9 - 0.0
21/01:00am 11.5 5.9 10.1 91 0.7 NW 30 33 16 18 1016.9 1016.6 0.0
21/12:30am 12.0 7.4 10.9 93 0.6 NW 26 28 14 15 1016.9 - 0.0
21/12:00am 12.4 8.2 11.0 91 0.7 NW 24 32 13 17 1016.9 1016.6 0.0
 
Date/Time
EST
Temp
°C
App
Temp
°C
Dew
Point
Rel
Hum
%
Delta-T
°C
Wind Press
QNH
hPa
Press
MSL
hPa
Rain
since 9 am
mm
Dir
 
Spd
km/h
Gust
km/h
Spd
kts
Gust
kts
20/11:30pm 14.0 11.1 11.0 82 1.6 N 17 22 9 12 1016.8 - 0.0
20/11:00pm 13.8 11.5 13.0 95 0.4 N 17 22 9 12 1017.1 1016.8 0.0

Other Formats:

Comma delimited format used in spreadsheet applications
http://www.bom.gov.au/fwo/IDV60801/IDV60801.95845.axf

JavaScript Object Notation format (JSON) in row-major order
http://www.bom.gov.au/fwo/IDV60801/IDV60801.95845.json